Time;durP1;ratioP1;P1;durP2;ratioP2;P2;SDS_P1;SDS_P2;PMS_P1;PMS_P2;Temp;Humidity;BMP_temperature;BMP_pressure;BME280_temperature;BME280_humidity;BME280_pressure;Samples;Min_cycle;Max_cycle;Signal;HPM_P1;HPM_P2
2023/06/15 00:01:19;;;;;;;13.65;6.57;;;;;;;;;;5112470;27;20039;-77
2023/06/15 00:03:45;;;;;;;8.32;6.50;;;;;;;;;;5131007;27;20019;-78
2023/06/15 00:06:11;;;;;;;13.50;7.10;;;;;;;;;;5112683;28;20035;-78
2023/06/15 00:08:37;;;;;;;8.95;5.82;;;;;;;;;;5112428;27;20027;-78
2023/06/15 00:11:03;;;;;;;14.23;6.55;;;;;;;;;;5130586;27;20039;-78
2023/06/15 00:13:29;;;;;;;9.93;6.43;;;;;;;;;;5131141;27;20122;-78
2023/06/15 00:15:55;;;;;;;15.48;6.45;;;;;;;;;;5112671;27;20039;-77
2023/06/15 00:18:21;;;;;;;12.48;6.63;;;;;;;;;;5130738;28;20395;-77
2023/06/15 00:20:48;;;;;;;16.02;7.82;;;;;;;;;;5095711;28;20037;-78
2023/06/15 00:23:17;;;;;;;17.00;6.80;;;;;;;;;;5112322;28;20030;-77
2023/06/15 00:25:43;;;;;;;10.07;6.60;;;;;;;;;;5130290;27;20042;-77
2023/06/15 00:28:09;;;;;;;9.75;6.90;;;;;;;;;;5112264;28;20031;-77
2023/06/15 00:30:35;;;;;;;14.45;8.73;;;;;;;;;;5130850;27;20253;-77
2023/06/15 00:33:05;;;;;;;19.15;8.23;;;;;;;;;;5112330;27;20043;-77
2023/06/15 00:35:31;;;;;;;17.15;8.30;;;;;;;;;;5130725;27;20028;-76
2023/06/15 00:37:57;;;;;;;10.35;6.90;;;;;;;;;;5114704;27;20039;-77
2023/06/15 00:40:24;;;;;;;15.38;7.38;;;;;;;;;;5115775;27;20027;-77
2023/06/15 00:42:50;;;;;;;11.65;6.60;;;;;;;;;;5134295;27;20049;-76
2023/06/15 00:45:16;;;;;;;14.18;6.05;;;;;;;;;;5115757;27;20039;-78
2023/06/15 00:47:43;;;;;;;11.75;6.00;;;;;;;;;;5116774;27;20046;-77
2023/06/15 00:50:10;;;;;;;11.88;5.95;;;;;;;;;;5134405;27;20063;-75
2023/06/15 00:52:36;;;;;;;9.73;6.22;;;;;;;;;;5134598;27;20123;-77
2023/06/15 00:55:03;;;;;;;10.77;6.35;;;;;;;;;;5134408;27;20031;-76
2023/06/15 00:57:30;;;;;;;9.32;6.85;;;;;;;;;;5116036;27;20130;-77
2023/06/15 00:59:59;;;;;;;17.48;5.80;;;;;;;;;;5134480;27;20059;-75
2023/06/15 01:02:26;;;;;;;14.20;6.00;;;;;;;;;;5119145;27;20094;-76
2023/06/15 01:04:55;;;;;;;8.93;5.90;;;;;;;;;;5144197;27;20027;-78
2023/06/15 01:07:27;;;;;;;9.57;5.90;;;;;;;;;;5134510;27;20637;-76
2023/06/15 01:09:57;;;;;;;7.63;6.00;;;;;;;;;;5112039;28;20146;-77
2023/06/15 01:12:24;;;;;;;10.73;6.72;;;;;;;;;;5111757;28;20070;-78
2023/06/15 01:14:50;;;;;;;15.30;6.43;;;;;;;;;;5113374;27;20031;-78
2023/06/15 01:17:16;;;;;;;10.43;6.63;;;;;;;;;;5113016;28;20047;-77
2023/06/15 01:19:57;;;;;;;11.90;6.32;;;;;;;;;;5111975;28;20032;-77
2023/06/15 01:22:36;;;;;;;10.60;6.63;;;;;;;;;;5112939;28;20031;-77
2023/06/15 01:25:04;;;;;;;13.43;6.43;;;;;;;;;;5111798;28;20522;-78
2023/06/15 01:27:33;;;;;;;9.63;5.90;;;;;;;;;;5113004;28;20036;-78
2023/06/15 01:29:59;;;;;;;17.60;6.80;;;;;;;;;;5111770;28;20023;-78
2023/06/15 01:32:25;;;;;;;12.13;6.40;;;;;;;;;;5077582;28;20496;-77
2023/06/15 01:34:53;;;;;;;10.23;5.70;;;;;;;;;;5094929;28;20457;-77
2023/06/15 01:37:19;;;;;;;12.30;6.47;;;;;;;;;;5111785;28;20079;-77
2023/06/15 01:39:45;;;;;;;14.25;6.38;;;;;;;;;;5115321;28;20069;-76
2023/06/15 01:42:12;;;;;;;14.77;5.85;;;;;;;;;;5114162;28;20046;-78
2023/06/15 01:44:38;;;;;;;14.05;6.55;;;;;;;;;;5113671;28;20027;-77
2023/06/15 01:47:04;;;;;;;11.25;6.45;;;;;;;;;;5121409;28;20035;-78
2023/06/15 01:49:30;;;;;;;6.88;5.88;;;;;;;;;;5105340;28;20032;-78
2023/06/15 01:51:56;;;;;;;9.35;6.53;;;;;;;;;;5115937;28;20474;-77
2023/06/15 01:54:23;;;;;;;9.90;6.00;;;;;;;;;;5112587;27;20039;-77
2023/06/15 01:56:49;;;;;;;9.82;5.90;;;;;;;;;;5111017;28;20153;-77
2023/06/15 01:59:15;;;;;;;9.43;5.60;;;;;;;;;;5111196;28;20115;-81
2023/06/15 02:01:41;;;;;;;5.82;4.95;;;;;;;;;;5111483;28;20118;-78
2023/06/15 02:04:07;;;;;;;6.35;5.53;;;;;;;;;;5111205;28;20039;-82
2023/06/15 02:06:33;;;;;;;17.80;6.22;;;;;;;;;;5112768;28;20071;-80
2023/06/15 02:08:59;;;;;;;10.60;5.72;;;;;;;;;;5094704;28;20052;-80
2023/06/15 02:11:26;;;;;;;9.95;5.25;;;;;;;;;;5110911;28;20594;-79
2023/06/15 02:13:52;;;;;;;11.82;5.70;;;;;;;;;;5077461;28;20092;-80
2023/06/15 02:16:19;;;;;;;6.75;5.47;;;;;;;;;;5112445;28;20063;-80
2023/06/15 02:18:47;;;;;;;8.93;5.68;;;;;;;;;;5094541;28;20031;-79
2023/06/15 02:21:16;;;;;;;14.98;5.53;;;;;;;;;;5111426;28;20135;-81
2023/06/15 02:23:42;;;;;;;6.80;5.55;;;;;;;;;;5111539;28;20035;-80
2023/06/15 02:26:08;;;;;;;14.43;6.35;;;;;;;;;;5111146;28;20030;-80
2023/06/15 02:28:36;;;;;;;6.03;5.43;;;;;;;;;;5111542;28;20039;-79
2023/06/15 02:31:06;;;;;;;8.30;5.32;;;;;;;;;;5111233;28;20028;-80
2023/06/15 02:33:32;;;;;;;6.55;5.30;;;;;;;;;;5094339;28;20447;-80
2023/06/15 02:35:58;;;;;;;13.98;5.18;;;;;;;;;;5094226;28;20032;-80
2023/06/15 02:38:26;;;;;;;9.02;5.78;;;;;;;;;;5112187;28;20070;-80
2023/06/15 02:40:52;;;;;;;8.90;5.20;;;;;;;;;;5110860;28;20456;-78
2023/06/15 02:43:22;;;;;;;11.40;5.72;;;;;;;;;;5094471;28;20038;-80
2023/06/15 02:45:50;;;;;;;10.93;5.40;;;;;;;;;;5111138;28;20133;-79
2023/06/15 02:48:16;;;;;;;7.75;5.40;;;;;;;;;;5110974;28;20568;-79
2023/06/15 02:50:42;;;;;;;8.95;5.85;;;;;;;;;;5116719;28;20024;-78
2023/06/15 02:53:17;;;;;;;8.02;5.25;;;;;;;;;;5131504;28;20192;-80
2023/06/15 02:55:45;;;;;;;8.10;5.78;;;;;;;;;;5115724;28;20038;-78
2023/06/15 02:58:13;;;;;;;13.00;5.55;;;;;;;;;;5111521;28;20050;-81
2023/06/15 03:00:51;;;;;;;9.18;5.75;;;;;;;;;;5093311;28;20086;-79
2023/06/15 03:03:27;;;;;;;8.25;5.75;;;;;;;;;;5110366;28;20062;-79
2023/06/15 03:05:55;;;;;;;;;;;;;;;;;;5094463;28;20112;-78
2023/06/15 03:08:31;;;;;;;9.30;5.18;;;;;;;;;;5110535;28;19912;-79
2023/06/15 03:11:07;;;;;;;9.68;6.05;;;;;;;;;;5089830;28;20512;-80
2023/06/15 03:13:33;;;;;;;12.50;6.00;;;;;;;;;;5090444;28;20527;-81
2023/06/15 03:16:06;;;;;;;14.85;7.57;;;;;;;;;;5090001;28;20044;-80
2023/06/15 03:18:33;;;;;;;10.70;6.47;;;;;;;;;;5089636;28;20034;-80
2023/06/15 03:20:59;;;;;;;12.68;8.07;;;;;;;;;;5089504;28;20035;-78
2023/06/15 03:23:25;;;;;;;9.95;6.05;;;;;;;;;;5089385;28;20036;-79
2023/06/15 03:25:52;;;;;;;10.57;6.18;;;;;;;;;;5090818;28;20031;-81
2023/06/15 03:28:23;;;;;;;10.93;6.18;;;;;;;;;;5089478;28;20043;-79
2023/06/15 03:30:53;;;;;;;6.95;6.25;;;;;;;;;;5072703;28;20413;-81
2023/06/15 03:33:21;;;;;;;;;;;;;;;;;;5073914;28;20104;-81
2023/06/15 03:35:48;;;;;;;9.48;5.93;;;;;;;;;;5089481;28;20034;-79
2023/06/15 03:38:18;;;;;;;8.48;5.10;;;;;;;;;;5089411;28;20467;-79
2023/06/15 03:40:45;;;;;;;10.50;5.50;;;;;;;;;;5072652;28;20035;-80
2023/06/15 03:43:11;;;;;;;10.90;5.72;;;;;;;;;;5089577;28;20570;-80
2023/06/15 03:45:40;;;;;;;14.23;5.80;;;;;;;;;;5072730;28;20063;-79
2023/06/15 03:48:06;;;;;;;10.55;5.72;;;;;;;;;;5072518;28;20036;-81
2023/06/15 03:50:33;;;;;;;9.98;5.63;;;;;;;;;;5089471;28;20063;-80
2023/06/15 03:53:01;;;;;;;11.27;6.18;;;;;;;;;;5090307;28;20052;-80
2023/06/15 03:55:27;;;;;;;10.02;5.53;;;;;;;;;;5089093;28;20055;-79
2023/06/15 03:57:54;;;;;;;10.50;5.32;;;;;;;;;;5089137;28;20036;-78
2023/06/15 04:00:20;;;;;;;7.57;4.95;;;;;;;;;;5055969;28;20439;-81
2023/06/15 04:02:50;;;;;;;;;;;;;;;;;;5090084;28;20541;-79
2023/06/15 04:05:16;;;;;;;12.15;5.40;;;;;;;;;;5089284;28;19916;-80
2023/06/15 04:07:42;;;;;;;6.78;5.38;;;;;;;;;;5089109;28;20080;-79
2023/06/15 04:10:12;;;;;;;9.20;5.22;;;;;;;;;;5103942;28;20537;-80
2023/06/15 04:12:39;;;;;;;10.68;5.07;;;;;;;;;;5111653;28;20051;-80
2023/06/15 04:15:06;;;;;;;17.92;6.70;;;;;;;;;;5113753;28;20108;-81
2023/06/15 04:17:33;;;;;;;6.03;5.43;;;;;;;;;;5113191;28;20419;-80
2023/06/15 04:19:59;;;;;;;7.68;5.10;;;;;;;;;;5113346;28;20032;-80
2023/06/15 04:22:25;;;;;;;8.35;5.53;;;;;;;;;;5113157;28;20031;-79
2023/06/15 04:24:51;;;;;;;16.05;5.78;;;;;;;;;;5113193;28;20524;-79
2023/06/15 04:27:19;;;;;;;7.30;4.78;;;;;;;;;;5114352;28;20039;-77
2023/06/15 04:29:49;;;;;;;6.25;4.93;;;;;;;;;;5113044;28;20036;-78
2023/06/15 04:32:17;;;;;;;13.48;4.80;;;;;;;;;;5112734;28;20054;-79
2023/06/15 04:34:47;;;;;;;6.88;4.82;;;;;;;;;;5112982;28;20536;-78
2023/06/15 04:37:16;;;;;;;7.72;4.40;;;;;;;;;;5096177;28;20035;-80
2023/06/15 04:39:44;;;;;;;10.35;4.78;;;;;;;;;;5128437;28;20052;-77
2023/06/15 04:42:12;;;;;;;9.85;4.72;;;;;;;;;;5125627;27;20047;-80
2023/06/15 04:44:38;;;;;;;15.40;4.70;;;;;;;;;;5116106;28;20088;-80
2023/06/15 04:47:05;;;;;;;4.78;4.30;;;;;;;;;;5113136;28;20040;-81
2023/06/15 04:49:31;;;;;;;9.55;4.85;;;;;;;;;;5112950;28;20038;-81
2023/06/15 04:51:58;;;;;;;11.88;4.50;;;;;;;;;;5113336;28;20046;-79
2023/06/15 04:54:25;;;;;;;7.93;4.30;;;;;;;;;;5113580;28;20032;-80
2023/06/15 04:56:51;;;;;;;3.92;3.55;;;;;;;;;;5115047;28;20040;-79
2023/06/15 04:59:18;;;;;;;5.18;3.97;;;;;;;;;;5113828;28;20033;-81
2023/06/15 05:01:45;;;;;;;4.53;3.78;;;;;;;;;;5118983;28;20096;-80
2023/06/15 05:04:22;;;;;;;7.82;4.28;;;;;;;;;;5114228;28;20081;-79
2023/06/15 05:06:48;;;;;;;7.30;4.35;;;;;;;;;;5113692;28;20044;-82
2023/06/15 05:09:15;;;;;;;7.90;4.40;;;;;;;;;;5095715;28;20051;-80
2023/06/15 05:11:41;;;;;;;8.63;4.38;;;;;;;;;;5112594;28;20581;-80
2023/06/15 05:14:08;;;;;;;5.40;3.85;;;;;;;;;;5113875;28;20209;-80
2023/06/15 05:16:34;;;;;;;6.53;3.92;;;;;;;;;;5112091;28;20074;-82
2023/06/15 05:19:00;;;;;;;4.68;3.58;;;;;;;;;;5112361;28;20043;-80
2023/06/15 05:21:26;;;;;;;8.18;3.97;;;;;;;;;;5112090;28;20516;-81
2023/06/15 05:23:53;;;;;;;4.07;3.65;;;;;;;;;;5094178;28;20409;-80
2023/06/15 05:26:19;;;;;;;7.28;3.75;;;;;;;;;;5094836;28;20031;-81
2023/06/15 05:28:46;;;;;;;4.18;3.78;;;;;;;;;;5095036;28;20536;-81
2023/06/15 05:31:13;;;;;;;5.05;3.70;;;;;;;;;;5112277;28;20080;-79
2023/06/15 05:33:39;;;;;;;8.18;4.10;;;;;;;;;;5113581;28;20039;-81
2023/06/15 05:36:05;;;;;;;5.20;3.80;;;;;;;;;;5112065;28;20076;-81
2023/06/15 05:38:31;;;;;;;9.15;3.75;;;;;;;;;;5111889;28;20487;-79
2023/06/15 05:40:57;;;;;;;8.18;4.25;;;;;;;;;;5112346;28;20545;-82
2023/06/15 05:43:24;;;;;;;6.68;3.70;;;;;;;;;;5113090;28;20600;-80
2023/06/15 05:45:51;;;;;;;6.00;3.72;;;;;;;;;;5095083;28;20039;-81
2023/06/15 05:48:19;;;;;;;5.63;3.53;;;;;;;;;;5111726;28;20031;-82
2023/06/15 05:50:46;;;;;;;5.53;3.50;;;;;;;;;;5111891;28;20055;-80
2023/06/15 05:53:12;;;;;;;5.72;3.78;;;;;;;;;;5111641;28;20067;-80
2023/06/15 05:55:38;;;;;;;4.75;3.47;;;;;;;;;;5111655;28;20031;-80
2023/06/15 05:58:05;;;;;;;5.63;3.50;;;;;;;;;;5111275;28;20050;-81
2023/06/15 06:00:31;;;;;;;6.95;3.40;;;;;;;;;;5111545;28;20036;-79
2023/06/15 06:03:01;;;;;;;4.65;3.28;;;;;;;;;;5094444;28;20039;-80
2023/06/15 06:05:41;;;;;;;3.67;3.30;;;;;;;;;;5096320;28;20106;-79
2023/06/15 06:08:07;;;;;;;4.70;3.30;;;;;;;;;;5110832;28;20401;-78
2023/06/15 06:10:34;;;;;;;3.55;2.83;;;;;;;;;;5076970;28;20084;-78
2023/06/15 06:13:13;;;;;;;;;;;;;;;;;;5111334;28;20528;-79
2023/06/15 06:15:40;;;;;;;3.38;3.17;;;;;;;;;;5094170;28;19911;-77
2023/06/15 06:18:05;;;;;;;3.42;3.13;;;;;;;;;;5110729;28;20042;-80
2023/06/15 06:20:32;;;;;;;3.38;3.08;;;;;;;;;;5093604;28;20031;-78
2023/06/15 06:22:58;;;;;;;3.35;3.05;;;;;;;;;;5112229;28;20046;-78
2023/06/15 06:25:24;;;;;;;3.90;3.50;;;;;;;;;;5112014;28;20506;-75
2023/06/15 06:27:50;;;;;;;4.95;3.20;;;;;;;;;;5084123;28;20691;-78
2023/06/15 06:30:16;;;;;;;5.47;3.60;;;;;;;;;;5117808;28;20040;-78
2023/06/15 06:32:42;;;;;;;3.47;2.80;;;;;;;;;;5110875;28;20085;-78
2023/06/15 06:35:09;;;;;;;3.95;3.42;;;;;;;;;;5110456;28;20505;-78
2023/06/15 06:37:35;;;;;;;7.63;3.33;;;;;;;;;;5110230;28;20051;-76
2023/06/15 06:40:01;;;;;;;4.05;3.00;;;;;;;;;;5110593;28;20074;-79
2023/06/15 06:42:29;;;;;;;3.88;3.20;;;;;;;;;;5110216;28;20035;-77
2023/06/15 06:44:56;;;;;;;3.28;3.08;;;;;;;;;;5110465;28;20441;-78
2023/06/15 06:47:22;;;;;;;4.18;3.20;;;;;;;;;;5109883;28;20100;-77
2023/06/15 06:49:48;;;;;;;5.55;3.38;;;;;;;;;;5111697;28;20054;-77
2023/06/15 06:52:14;;;;;;;3.83;3.25;;;;;;;;;;5111437;28;20127;-78
2023/06/15 06:54:40;;;;;;;5.72;3.40;;;;;;;;;;5111247;28;20035;-77
2023/06/15 06:57:07;;;;;;;3.58;3.28;;;;;;;;;;5111310;28;20062;-80
2023/06/15 06:59:33;;;;;;;4.00;3.22;;;;;;;;;;5111285;28;20046;-78
2023/06/15 07:01:59;;;;;;;7.93;2.80;;;;;;;;;;5111486;28;20035;-78
2023/06/15 07:04:25;;;;;;;4.35;3.45;;;;;;;;;;5111027;28;20473;-78
2023/06/15 07:06:51;;;;;;;3.42;3.13;;;;;;;;;;5111164;28;20088;-79
2023/06/15 07:09:17;;;;;;;5.07;3.20;;;;;;;;;;5109988;28;20461;-76
2023/06/15 07:11:43;;;;;;;3.97;3.58;;;;;;;;;;5109489;28;20041;-78
2023/06/15 07:14:09;;;;;;;3.50;3.30;;;;;;;;;;5111343;28;20039;-77
2023/06/15 07:16:35;;;;;;;4.20;3.38;;;;;;;;;;5110877;28;20382;-78
2023/06/15 07:19:01;;;;;;;3.47;3.17;;;;;;;;;;5109809;28;20032;-77
2023/06/15 07:21:27;;;;;;;3.58;3.35;;;;;;;;;;5110839;28;20038;-76
2023/06/15 07:23:53;;;;;;;3.92;3.50;;;;;;;;;;5109525;28;20414;-78
2023/06/15 07:26:19;;;;;;;3.88;3.50;;;;;;;;;;5110959;28;20031;-77
2023/06/15 07:28:45;;;;;;;3.28;3.08;;;;;;;;;;5110610;28;20598;-77
2023/06/15 07:31:11;;;;;;;8.73;3.28;;;;;;;;;;5110864;28;20047;-78
2023/06/15 07:33:37;;;;;;;6.45;3.13;;;;;;;;;;5110578;28;20433;-76
2023/06/15 07:36:04;;;;;;;5.72;3.35;;;;;;;;;;5109706;28;20038;-77
2023/06/15 07:38:30;;;;;;;8.13;3.30;;;;;;;;;;5110723;28;20044;-76
2023/06/15 07:40:57;;;;;;;3.72;3.33;;;;;;;;;;5109334;28;20513;-78
2023/06/15 07:43:23;;;;;;;3.35;3.05;;;;;;;;;;5109318;28;20035;-78
2023/06/15 07:45:49;;;;;;;6.40;2.90;;;;;;;;;;5109368;28;20031;-78
2023/06/15 07:48:15;;;;;;;3.42;3.22;;;;;;;;;;5110188;28;20042;-78
2023/06/15 07:50:41;;;;;;;4.53;3.40;;;;;;;;;;5110808;28;20028;-77
2023/06/15 07:53:07;;;;;;;3.47;3.28;;;;;;;;;;5110716;28;20430;-76
2023/06/15 07:55:33;;;;;;;4.10;3.33;;;;;;;;;;5110813;28;20043;-76
2023/06/15 07:57:59;;;;;;;4.65;3.28;;;;;;;;;;5109564;28;20288;-76
2023/06/15 08:00:25;;;;;;;8.00;3.33;;;;;;;;;;5110317;28;20027;-76
2023/06/15 08:02:58;;;;;;;7.00;3.40;;;;;;;;;;5117838;28;20038;-76
2023/06/15 08:05:24;;;;;;;3.03;2.83;;;;;;;;;;5121441;28;20537;-78
2023/06/15 08:07:50;;;;;;;3.67;3.38;;;;;;;;;;5118218;28;20036;-76
2023/06/15 08:10:17;;;;;;;3.55;3.30;;;;;;;;;;5126147;27;20621;-77
2023/06/15 08:12:45;;;;;;;4.03;3.22;;;;;;;;;;5130941;27;20039;-76
2023/06/15 08:15:11;;;;;;;3.50;3.30;;;;;;;;;;5118831;27;20030;-76
2023/06/15 08:17:37;;;;;;;9.95;3.65;;;;;;;;;;5106794;28;20039;-77
2023/06/15 08:20:09;;;;;;;4.53;3.40;;;;;;;;;;5131212;27;20035;-76
2023/06/15 08:22:35;;;;;;;6.45;3.08;;;;;;;;;;5130839;27;20035;-78
2023/06/15 08:25:02;;;;;;;3.47;3.22;;;;;;;;;;5132004;27;20533;-76
2023/06/15 08:27:31;;;;;;;9.77;3.47;;;;;;;;;;5131287;27;20038;-77
2023/06/15 08:30:00;;;;;;;4.45;3.63;;;;;;;;;;5113333;27;20046;-76
2023/06/15 08:32:26;;;;;;;6.22;3.53;;;;;;;;;;5132069;27;20089;-77
2023/06/15 08:34:52;;;;;;;3.97;3.30;;;;;;;;;;5132079;27;20081;-76
2023/06/15 08:37:18;;;;;;;3.67;3.30;;;;;;;;;;5132223;27;20031;-77
2023/06/15 08:39:44;;;;;;;9.35;3.42;;;;;;;;;;5131944;27;20058;-77
2023/06/15 08:42:10;;;;;;;3.45;3.15;;;;;;;;;;5132312;27;20187;-77
2023/06/15 08:44:37;;;;;;;3.42;3.22;;;;;;;;;;5132676;27;20088;-79
2023/06/15 08:47:05;;;;;;;3.38;3.17;;;;;;;;;;5132752;27;20505;-79
2023/06/15 08:49:31;;;;;;;3.70;3.50;;;;;;;;;;5080973;28;20027;-77
2023/06/15 08:52:00;;;;;;;4.00;3.63;;;;;;;;;;5113174;28;20097;-79
2023/06/15 08:54:32;;;;;;;6.10;3.38;;;;;;;;;;5112661;28;20095;-78
2023/06/15 08:56:58;;;;;;;3.97;3.55;;;;;;;;;;5112167;28;20035;-78
2023/06/15 08:59:24;;;;;;;4.68;3.65;;;;;;;;;;5098552;27;20091;-77
2023/06/15 09:01:54;;;;;;;3.95;3.65;;;;;;;;;;5134146;27;20527;-78
2023/06/15 09:04:20;;;;;;;3.78;3.47;;;;;;;;;;5134253;27;20107;-77
2023/06/15 09:06:46;;;;;;;3.90;3.60;;;;;;;;;;5133948;27;20572;-77
2023/06/15 09:09:12;;;;;;;4.03;3.63;;;;;;;;;;5133975;27;20074;-78
2023/06/15 09:11:41;;;;;;;4.95;3.50;;;;;;;;;;5082084;27;20134;-78
2023/06/15 09:14:08;;;;;;;3.95;3.63;;;;;;;;;;5115690;27;20134;-77
2023/06/15 09:16:35;;;;;;;3.90;3.60;;;;;;;;;;5134598;27;20092;-76
2023/06/15 09:19:01;;;;;;;4.03;3.10;;;;;;;;;;5116228;27;20042;-77
2023/06/15 09:21:28;;;;;;;3.85;3.55;;;;;;;;;;5134239;27;20034;-77
2023/06/15 09:24:02;;;;;;;4.30;3.47;;;;;;;;;;5133874;27;20039;-79
2023/06/15 09:26:28;;;;;;;6.57;3.60;;;;;;;;;;5115816;27;20084;-78
2023/06/15 09:28:55;;;;;;;4.63;3.30;;;;;;;;;;5099578;27;20035;-79
2023/06/15 09:31:34;;;;;;;4.00;3.63;;;;;;;;;;5116867;27;20038;-78
2023/06/15 09:34:04;;;;;;;4.68;3.20;;;;;;;;;;5135565;27;20091;-78
2023/06/15 09:36:35;;;;;;;4.00;3.70;;;;;;;;;;5117744;27;20035;-77
2023/06/15 09:39:03;;;;;;;5.40;3.75;;;;;;;;;;5134569;27;20045;-77
2023/06/15 09:41:29;;;;;;;4.28;3.88;;;;;;;;;;5134051;27;20023;-77
2023/06/15 09:43:55;;;;;;;2.85;2.63;;;;;;;;;;5133687;27;20059;-79
2023/06/15 09:46:21;;;;;;;4.43;4.13;;;;;;;;;;5115960;27;20070;-77
2023/06/15 09:48:47;;;;;;;6.95;3.42;;;;;;;;;;5115253;27;20035;-77
2023/06/15 09:51:15;;;;;;;3.83;3.60;;;;;;;;;;5115075;27;20072;-77
2023/06/15 09:53:42;;;;;;;6.82;3.75;;;;;;;;;;5115133;27;20042;-78
2023/06/15 09:56:08;;;;;;;3.83;3.30;;;;;;;;;;5115353;27;20031;-76
2023/06/15 09:58:34;;;;;;;7.60;3.95;;;;;;;;;;5133458;27;20061;-78
2023/06/15 10:01:03;;;;;;;7.38;4.25;;;;;;;;;;5136424;27;20501;-76
2023/06/15 10:03:29;;;;;;;4.15;3.75;;;;;;;;;;5131691;27;20072;-76
2023/06/15 10:05:58;;;;;;;4.53;3.65;;;;;;;;;;5132307;27;20058;-78
2023/06/15 10:08:25;;;;;;;4.30;4.00;;;;;;;;;;5141952;27;20046;-76
2023/06/15 10:10:52;;;;;;;4.82;4.22;;;;;;;;;;5145879;27;20099;-77
2023/06/15 10:13:20;;;;;;;4.05;3.70;;;;;;;;;;5124678;27;20106;-78
2023/06/15 10:15:51;;;;;;;5.05;3.80;;;;;;;;;;5091517;27;20049;-77
2023/06/15 10:18:17;;;;;;;3.92;3.72;;;;;;;;;;5135160;27;20038;-77
2023/06/15 10:20:43;;;;;;;5.60;3.85;;;;;;;;;;5120266;27;20023;-78
2023/06/15 10:23:10;;;;;;;9.90;4.30;;;;;;;;;;5140378;27;20038;-77
2023/06/15 10:25:36;;;;;;;4.45;4.13;;;;;;;;;;5121057;27;20054;-78
2023/06/15 10:28:03;;;;;;;10.85;4.35;;;;;;;;;;5135568;27;20055;-78
2023/06/15 10:30:39;;;;;;;4.00;3.80;;;;;;;;;;5097966;27;20023;-78
2023/06/15 10:33:24;;;;;;;5.10;4.70;;;;;;;;;;5132927;27;20057;-78
2023/06/15 10:35:53;;;;;;;3.90;3.60;;;;;;;;;;5097336;27;20035;-78
2023/06/15 10:38:23;;;;;;;4.28;3.90;;;;;;;;;;5097258;27;20327;-79
2023/06/15 10:40:49;;;;;;;4.47;4.18;;;;;;;;;;5096410;27;20120;-76
2023/06/15 10:43:17;;;;;;;4.38;3.97;;;;;;;;;;5113879;27;20038;-79
2023/06/15 10:45:43;;;;;;;4.72;4.28;;;;;;;;;;5129624;27;20079;-73
2023/06/15 10:48:09;;;;;;;6.05;4.40;;;;;;;;;;5128679;27;20457;-75
2023/06/15 10:50:39;;;;;;;4.60;4.30;;;;;;;;;;5113052;27;20026;-73
2023/06/15 10:53:05;;;;;;;3.88;3.67;;;;;;;;;;5112933;27;20073;-73
2023/06/15 10:55:31;;;;;;;4.10;3.80;;;;;;;;;;5087899;27;20410;-74
2023/06/15 10:58:16;;;;;;;4.05;3.75;;;;;;;;;;5113433;27;20039;-76
2023/06/15 11:00:43;;;;;;;4.38;4.07;;;;;;;;;;5132945;27;20031;-79
2023/06/15 11:03:24;;;;;;;4.65;4.10;;;;;;;;;;5135397;27;20115;-78
2023/06/15 11:06:00;;;;;;;4.40;4.03;;;;;;;;;;5115595;27;20074;-75
2023/06/15 11:08:27;;;;;;;6.18;4.70;;;;;;;;;;5129016;27;20058;-78
2023/06/15 11:10:53;;;;;;;5.20;3.95;;;;;;;;;;5128689;27;20039;-79
2023/06/15 11:13:25;;;;;;;4.10;3.80;;;;;;;;;;5112042;27;20064;-78
2023/06/15 11:16:09;;;;;;;3.95;3.65;;;;;;;;;;5132558;27;20035;-79
2023/06/15 11:18:36;;;;;;;3.95;3.75;;;;;;;;;;5131277;27;20035;-78
2023/06/15 11:21:02;;;;;;;4.32;4.03;;;;;;;;;;5111903;27;20034;-78
2023/06/15 11:23:29;;;;;;;5.90;4.05;;;;;;;;;;5095415;27;20023;-78
2023/06/15 11:25:55;;;;;;;4.70;4.20;;;;;;;;;;5130670;27;20039;-79
2023/06/15 11:28:24;;;;;;;4.80;4.40;;;;;;;;;;5131527;27;20062;-79
2023/06/15 11:30:54;;;;;;;4.28;3.97;;;;;;;;;;5113141;27;20043;-79
2023/06/15 11:33:41;;;;;;;4.23;3.93;;;;;;;;;;5112780;27;20172;-79
2023/06/15 11:36:07;;;;;;;4.80;4.47;;;;;;;;;;5131160;27;20031;-78
2023/06/15 11:38:33;;;;;;;5.20;4.70;;;;;;;;;;5113446;27;20122;-78
2023/06/15 11:41:00;;;;;;;4.28;3.97;;;;;;;;;;5131858;27;20489;-79
2023/06/15 11:43:37;;;;;;;4.15;3.85;;;;;;;;;;5112808;27;20080;-78
2023/06/15 11:46:03;;;;;;;5.15;4.35;;;;;;;;;;5131005;27;20498;-80
2023/06/15 11:48:30;;;;;;;7.30;4.18;;;;;;;;;;5131222;27;20501;-78
2023/06/15 11:50:56;;;;;;;4.55;4.10;;;;;;;;;;5140594;27;20057;-78
2023/06/15 11:53:22;;;;;;;5.35;4.38;;;;;;;;;;5141968;27;20047;-78
2023/06/15 11:55:48;;;;;;;4.47;4.07;;;;;;;;;;5131247;27;20031;-79
2023/06/15 11:58:14;;;;;;;4.40;4.10;;;;;;;;;;5130914;27;20041;-80
2023/06/15 12:00:40;;;;;;;4.85;3.92;;;;;;;;;;5130982;27;20027;-78
2023/06/15 12:03:10;;;;;;;4.72;4.20;;;;;;;;;;5130563;27;20023;-78
2023/06/15 12:05:36;;;;;;;4.35;3.95;;;;;;;;;;5095583;28;20043;-79
2023/06/15 12:08:03;;;;;;;4.05;3.75;;;;;;;;;;5095373;28;20027;-78
2023/06/15 12:10:29;;;;;;;5.07;4.25;;;;;;;;;;5112601;27;20517;-78
2023/06/15 12:12:57;;;;;;;4.85;4.32;;;;;;;;;;5130745;27;20509;-78
2023/06/15 12:15:24;;;;;;;5.30;4.30;;;;;;;;;;5130767;27;20117;-79
2023/06/15 12:17:50;;;;;;;6.38;3.80;;;;;;;;;;5130464;27;20046;-77
2023/06/15 12:20:17;;;;;;;4.15;3.85;;;;;;;;;;5130612;27;20078;-78
2023/06/15 12:22:43;;;;;;;5.07;4.68;;;;;;;;;;5130593;27;20039;-76
2023/06/15 12:25:09;;;;;;;4.80;4.50;;;;;;;;;;5112460;27;20578;-78
2023/06/15 12:27:43;;;;;;;4.65;3.90;;;;;;;;;;5130809;27;20046;-78
2023/06/15 12:30:12;;;;;;;4.63;4.22;;;;;;;;;;5130995;27;20106;-78
2023/06/15 12:32:38;;;;;;;;;;;;;;;;;;5131484;27;20095;-78
2023/06/15 12:35:04;;;;;;;5.20;4.70;;;;;;;;;;5134673;27;20005;-77
2023/06/15 12:37:30;;;;;;;4.82;4.32;;;;;;;;;;5134689;27;20461;-78
2023/06/15 12:39:56;;;;;;;4.35;3.75;;;;;;;;;;5135275;27;20115;-79
2023/06/15 12:42:23;;;;;;;4.82;4.38;;;;;;;;;;5099310;27;20091;-78
2023/06/15 12:44:49;;;;;;;9.82;4.40;;;;;;;;;;5134197;27;20027;-78
2023/06/15 12:47:14;;;;;;;4.55;4.20;;;;;;;;;;5134371;27;20038;-78
2023/06/15 12:49:40;;;;;;;8.20;4.20;;;;;;;;;;5134428;27;20030;-78
2023/06/15 12:52:07;;;;;;;4.28;3.88;;;;;;;;;;5115596;27;20421;-77
2023/06/15 12:54:32;;;;;;;6.68;4.25;;;;;;;;;;5134121;27;20070;-77
2023/06/15 12:56:58;;;;;;;4.05;3.78;;;;;;;;;;5115448;27;20423;-79
2023/06/15 12:59:25;;;;;;;4.28;3.97;;;;;;;;;;5115545;27;20034;-78
2023/06/15 13:01:50;;;;;;;4.53;4.13;;;;;;;;;;5098236;27;20031;-79
2023/06/15 13:04:17;;;;;;;4.82;4.25;;;;;;;;;;5115491;27;20046;-78
2023/06/15 13:06:43;;;;;;;4.40;4.00;;;;;;;;;;5134045;27;20035;-78
2023/06/15 13:09:09;;;;;;;4.18;3.88;;;;;;;;;;5133294;27;20732;-78
2023/06/15 13:11:36;;;;;;;4.28;3.97;;;;;;;;;;5133817;27;20027;-79
2023/06/15 13:14:02;;;;;;;4.00;3.65;;;;;;;;;;5133431;27;20413;-78
2023/06/15 13:16:28;;;;;;;3.95;3.65;;;;;;;;;;5115594;27;20027;-77
2023/06/15 13:18:54;;;;;;;4.43;4.00;;;;;;;;;;5133499;27;20035;-80
2023/06/15 13:21:21;;;;;;;4.13;3.72;;;;;;;;;;5115161;27;20046;-80
2023/06/15 13:23:47;;;;;;;5.13;4.70;;;;;;;;;;5098220;27;20046;-78
2023/06/15 13:26:13;;;;;;;6.28;3.90;;;;;;;;;;5133498;27;20031;-79
2023/06/15 13:28:40;;;;;;;4.45;4.03;;;;;;;;;;5133528;27;20034;-79
2023/06/15 13:31:06;;;;;;;4.03;3.72;;;;;;;;;;5114860;27;20588;-79
2023/06/15 13:33:32;;;;;;;4.15;3.85;;;;;;;;;;5115175;27;20049;-78
2023/06/15 13:35:58;;;;;;;4.53;4.22;;;;;;;;;;5134620;27;20027;-77
2023/06/15 13:38:24;;;;;;;4.30;3.90;;;;;;;;;;5155112;27;20027;-79
2023/06/15 13:40:50;;;;;;;4.28;3.97;;;;;;;;;;5116829;27;20047;-79
2023/06/15 13:43:16;;;;;;;5.95;5.53;;;;;;;;;;5115599;27;20029;-79
2023/06/15 13:45:42;;;;;;;6.20;4.57;;;;;;;;;;5132666;27;20068;-78
2023/06/15 13:48:08;;;;;;;5.32;4.90;;;;;;;;;;5114628;27;20557;-78
2023/06/15 13:50:34;;;;;;;6.25;4.50;;;;;;;;;;5133552;27;20417;-79
2023/06/15 13:53:00;;;;;;;4.90;4.50;;;;;;;;;;5132833;27;20047;-79
2023/06/15 13:55:26;;;;;;;5.45;4.38;;;;;;;;;;5098346;27;20039;-79
2023/06/15 13:57:53;;;;;;;11.05;4.88;;;;;;;;;;5098380;27;20031;-78
2023/06/15 14:00:19;;;;;;;5.90;3.35;;;;;;;;;;5135078;27;20066;-78
2023/06/15 14:02:45;;;;;;;5.10;3.60;;;;;;;;;;5141315;27;20084;-79
2023/06/15 14:05:13;;;;;;;5.05;3.80;;;;;;;;;;5143448;27;20031;-79
2023/06/15 14:07:39;;;;;;;5.10;3.97;;;;;;;;;;5121567;27;20047;-80
2023/06/15 14:10:06;;;;;;;5.20;4.07;;;;;;;;;;5132853;27;20536;-79
2023/06/15 14:12:32;;;;;;;4.05;3.83;;;;;;;;;;5132968;27;20069;-79
2023/06/15 14:14:58;;;;;;;4.65;4.30;;;;;;;;;;5132640;27;20027;-78
2023/06/15 14:17:25;;;;;;;5.53;4.38;;;;;;;;;;5133028;27;20034;-79
2023/06/15 14:19:51;;;;;;;4.97;3.95;;;;;;;;;;5115213;27;20576;-79
2023/06/15 14:22:17;;;;;;;4.30;3.90;;;;;;;;;;5132878;27;20035;-79
2023/06/15 14:24:43;;;;;;;4.15;3.70;;;;;;;;;;5097444;27;20038;-78
2023/06/15 14:27:11;;;;;;;3.85;3.45;;;;;;;;;;5133594;27;20458;-80
2023/06/15 14:29:37;;;;;;;5.70;4.57;;;;;;;;;;5134137;27;20038;-78
2023/06/15 14:32:03;;;;;;;4.32;4.03;;;;;;;;;;5134095;27;20035;-80
2023/06/15 14:34:29;;;;;;;4.18;3.90;;;;;;;;;;5133334;27;20042;-79
2023/06/15 14:36:55;;;;;;;3.63;3.33;;;;;;;;;;5132349;27;20033;-78
2023/06/15 14:39:21;;;;;;;6.07;4.00;;;;;;;;;;5132304;27;20118;-81
2023/06/15 14:41:47;;;;;;;6.07;4.20;;;;;;;;;;5113883;27;20497;-79
2023/06/15 14:44:14;;;;;;;5.00;3.80;;;;;;;;;;5113754;27;20390;-79